| time (UTC) | temp F | wind direction | speed MPH | gust MPH | rain 1hr in | rain 24hr in | rain mn in | humidity % | barometer mb |
| 20260507234549 | 38 | 180 | 11.0 | 24.0 | 0.00 | 0.52 | 0.07 | 63 | 988.7 |
| 20260507233050 | 39 | 175 | 10.0 | 17.0 | 0.00 | 0.52 | 0.07 | 62 | 988.3 |
| 20260507231555 | 40 | 120 | 15.0 | 25.0 | 0.00 | 0.52 | 0.07 | 59 | 988.2 |
| 20260507230048 | 40 | 147 | 12.0 | 22.0 | 0.00 | 0.52 | 0.07 | 58 | 988.2 |
| 20260507224558 | 40 | 139 | 16.0 | 25.0 | 0.00 | 0.55 | 0.07 | 58 | 988.1 |
| 20260507223055 | 41 | 156 | 13.0 | 27.0 | 0.00 | 0.55 | 0.07 | 58 | 988.1 |
| 20260507221552 | 41 | 124 | 12.0 | 25.0 | 0.00 | 0.55 | 0.07 | 57 | 987.9 |
| 20260507220052 | 41 | 165 | 13.0 | 27.0 | 0.00 | 0.55 | 0.07 | 58 | 988.0 |
| 20260507214554 | 42 | 137 | 15.0 | 25.0 | 0.00 | 0.57 | 0.07 | 58 | 988.0 |
| 20260507213054 | 42 | 149 | 13.0 | 24.0 | 0.00 | 0.57 | 0.07 | 59 | 987.9 |
| 20260507211554 | 42 | 137 | 10.0 | 23.0 | 0.00 | 0.57 | 0.07 | 62 | 987.7 |
| 20260507210053 | 42 | 125 | 13.0 | 21.0 | 0.00 | 0.57 | 0.07 | 61 | 987.7 |
| 20260507204559 | 44 | 127 | 11.0 | 21.0 | 0.00 | 0.61 | 0.07 | 61 | 987.5 |
| 20260507203052 | 42 | 129 | 12.0 | 21.0 | 0.00 | 0.61 | 0.07 | 62 | 987.4 |
| 20260507201558 | 41 | 95 | 11.0 | 22.0 | 0.00 | 0.61 | 0.07 | 65 | 987.3 |
| 20260507200049 | 42 | 119 | 14.0 | 25.0 | 0.00 | 0.61 | 0.07 | 64 | 987.3 |
| 20260507194551 | 43 | 163 | 13.0 | 26.0 | 0.00 | 0.66 | 0.07 | 67 | 987.3 |
| 20260507193054 | 44 | 128 | 14.0 | 24.0 | 0.00 | 0.66 | 0.07 | 65 | 987.2 |
| 20260507191556 | 45 | 152 | 17.0 | 25.0 | 0.00 | 0.66 | 0.07 | 65 | 987.1 |
| 20260507190055 | 46 | 134 | 14.0 | 26.0 | 0.00 | 0.66 | 0.07 | 63 | 986.9 |
| 20260507184550 | 46 | 107 | 11.0 | 18.0 | 0.00 | 0.78 | 0.07 | 62 | 986.9 |
| 20260507183055 | 46 | 130 | 9.0 | 20.0 | 0.00 | 0.78 | 0.07 | 67 | 987.1 |
| 20260507181601 | 44 | 130 | 8.0 | 16.0 | 0.00 | 0.78 | 0.07 | 72 | 987.2 |
| 20260507180050 | 43 | 108 | 9.0 | 16.0 | 0.00 | 0.78 | 0.07 | 79 | 987.3 |
| 20260507174557 | 42 | 141 | 8.0 | 18.0 | 0.03 | 0.89 | 0.07 | 82 | 987.5 |
| 20260507173051 | 42 | 143 | 6.0 | 16.0 | 0.07 | 0.89 | 0.07 | 90 | 987.3 |
| 20260507171602 | 40 | 87 | 8.0 | 15.0 | 0.07 | 0.89 | 0.07 | 93 | 987.6 |
| 20260507170054 | 39 | 59 | 2.0 | 8.0 | 0.07 | 0.89 | 0.07 | 95 | 987.8 |
| 20260507164549 | 38 | 117 | 8.0 | 14.0 | 0.03 | 0.87 | 0.03 | 90 | 988.2 |
| 20260507163056 | 40 | 107 | 8.0 | 14.0 | 0.00 | 0.84 | 0.00 | 90 | 988.1 |
| 20260507161555 | 41 | 101 | 8.0 | 15.0 | 0.00 | 0.84 | 0.00 | 88 | 988.1 |
| 20260507160053 | 41 | 91 | 10.0 | 18.0 | 0.00 | 0.84 | 0.00 | 87 | 988.2 |
| 20260507154601 | 42 | 150 | 9.0 | 19.0 | 0.00 | 0.84 | 0.00 | 85 | 988.3 |
| 20260507153100 | 43 | 168 | 6.0 | 16.0 | 0.00 | 0.84 | 0.00 | 85 | 988.3 |
| 20260507151554 | 42 | 120 | 9.0 | 14.0 | 0.00 | 0.84 | 0.00 | 88 | 988.2 |
| 20260507150056 | 41 | 151 | 4.0 | 10.0 | 0.00 | 0.84 | 0.00 | 89 | 988.4 |
| 20260507144553 | 40 | 116 | 6.0 | 11.0 | 0.00 | 0.87 | 0.00 | 91 | 988.3 |
| 20260507143050 | 39 | 112 | 7.0 | 12.0 | 0.00 | 0.87 | 0.00 | 91 | 988.5 |
| 20260507141552 | 39 | 120 | 6.0 | 12.0 | 0.00 | 0.87 | 0.00 | 93 | 988.7 |
| 20260507140053 | 39 | 99 | 4.0 | 9.0 | 0.00 | 0.87 | 0.00 | 93 | 988.7 |
| 20260507134554 | 39 | 180 | 6.0 | 11.0 | 0.00 | 0.88 | 0.00 | 93 | 988.6 |
| 20260507133052 | 39 | 142 | 7.0 | 15.0 | 0.00 | 0.88 | 0.00 | 94 | 988.8 |
| 20260507131600 | 38 | 69 | 7.0 | 13.0 | 0.00 | 0.88 | 0.00 | 95 | 988.8 |
| 20260507130105 | 38 | 80 | 8.0 | 13.0 | 0.00 | 0.88 | 0.00 | 96 | 988.8 |
| 20260507124555 | 38 | 70 | 6.0 | 10.0 | 0.00 | 0.88 | 0.00 | 97 | 988.8 |
| 20260507123054 | 37 | 129 | 3.0 | 8.0 | 0.00 | 0.88 | 0.00 | 98 | 988.5 |
| 20260507121605 | 36 | 112 | 4.0 | 6.0 | 0.00 | 0.88 | 0.00 | 98 | 988.6 |
| 20260507120100 | 36 | 149 | 3.0 | 12.0 | 0.00 | 0.88 | 0.00 | 98 | 988.9 |
| 20260507114609 | 36 | 138 | 5.0 | 12.0 | 0.00 | 0.88 | 0.00 | 98 | 988.9 |
| 20260507113052 | 35 | 96 | 2.0 | 10.0 | 0.00 | 0.88 | 0.00 | 98 | 989.2 |
| 20260507111551 | 35 | 131 | 2.0 | 9.0 | 0.00 | 0.88 | 0.00 | 98 | 989.1 |
| 20260507110052 | 35 | 97 | 4.0 | 9.0 | 0.00 | 0.88 | 0.00 | 98 | 989.0 |
| 20260507104549 | 35 | 143 | 3.0 | 10.0 | 0.00 | 0.88 | 0.00 | 98 | 989.1 |
| 20260507103051 | 35 | 108 | 3.0 | 8.0 | 0.00 | 0.88 | 0.00 | 98 | 988.7 |
| 20260507101552 | 35 | 100 | 3.0 | 8.0 | 0.00 | 0.88 | 0.00 | 98 | 988.5 |
| 20260507100051 | 34 | 140 | 4.0 | 10.0 | 0.00 | 0.88 | 0.00 | 98 | 988.4 |
| 20260507094554 | 34 | 103 | 3.0 | 8.0 | 0.00 | 0.88 | 0.00 | 98 | 988.7 |
| 20260507093059 | 34 | 133 | 3.0 | 9.0 | 0.00 | 0.88 | 0.00 | 98 | 988.4 |
| 20260507091556 | 34 | 126 | 2.0 | 5.0 | 0.00 | 0.88 | 0.00 | 98 | 988.4 |
| 20260507090057 | 34 | 0 | 3.0 | 8.0 | 0.00 | 0.88 | 0.00 | 98 | 988.3 |
| 20260507084554 | 34 | 136 | 3.0 | 11.0 | 0.00 | 0.88 | 0.00 | 98 | 988.3 |
| 20260507083047 | 34 | 0 | 2.0 | 7.0 | 0.00 | 0.88 | 0.00 | 98 | 988.5 |
| 20260507081554 | 34 | 87 | 3.0 | 8.0 | 0.00 | 0.88 | 0.00 | 98 | 988.5 |
| 20260507080052 | 35 | 128 | 1.0 | 7.0 | 0.00 | 0.88 | 0.00 | 98 | 988.2 |
| 20260507074602 | 35 | 145 | 4.0 | 9.0 | 0.00 | 0.92 | 0.00 | 98 | 988.3 |
| 20260507073051 | 35 | 202 | 4.0 | 8.0 | 0.00 | 0.92 | 0.00 | 98 | 988.0 |
| 20260507071550 | 35 | 0 | 1.0 | 5.0 | 0.00 | 0.92 | 0.00 | 98 | 988.5 |
| 20260507070050 | 36 | 180 | 4.0 | 9.0 | 0.00 | 0.92 | 0.00 | 98 | 987.9 |
| 20260507064554 | 36 | 141 | 6.0 | 14.0 | 0.00 | 0.93 | 0.00 | 98 | 988.1 |
| 20260507063048 | 36 | 175 | 7.0 | 12.0 | 0.00 | 0.93 | 0.00 | 99 | 987.7 |
| 20260507061551 | 37 | 167 | 7.0 | 14.0 | 0.00 | 0.93 | 0.00 | 98 | 987.8 |
| 20260507060052 | 37 | 158 | 8.0 | 13.0 | 0.00 | 0.93 | 0.00 | 99 | 987.8 |
| 20260507054631 | 37 | 147 | 8.0 | 12.0 | 0.00 | 0.96 | 0.00 | 98 | 987.8 |
| 20260507053055 | 37 | 195 | 6.0 | 10.0 | 0.00 | 0.96 | 0.00 | 98 | 988.0 |
| 20260507051552 | 38 | 157 | 5.0 | 7.0 | 0.00 | 0.96 | 0.00 | 98 | 988.1 |
| 20260507050057 | 38 | 170 | 4.0 | 8.0 | 0.00 | 0.96 | 0.00 | 98 | 988.0 |
| 20260507044600 | 38 | 150 | 5.0 | 14.0 | 0.00 | 0.96 | 0.00 | 98 | 988.0 |
| 20260507043050 | 38 | 163 | 7.0 | 11.0 | 0.01 | 0.96 | 0.00 | 98 | 988.3 |
| 20260507041600 | 39 | 144 | 2.0 | 9.0 | 0.02 | 0.96 | 0.00 | 98 | 988.4 |
| 20260507040058 | 39 | 160 | 8.0 | 13.0 | 0.02 | 0.96 | 0.00 | 98 | 989.0 |
| 20260507034558 | 39 | 126 | 6.0 | 12.0 | 0.04 | 0.96 | 0.96 | 98 | 988.9 |
| 20260507033053 | 40 | 145 | 7.0 | 15.0 | 0.05 | 0.95 | 0.95 | 98 | 989.0 |
| 20260507031604 | 40 | 144 | 7.0 | 12.0 | 0.07 | 0.94 | 0.94 | 98 | 988.8 |
| 20260507030055 | 40 | 127 | 8.0 | 13.0 | 0.15 | 0.94 | 0.94 | 98 | 988.7 |
| 20260507024553 | 40 | 156 | 6.0 | 14.0 | 0.21 | 0.92 | 0.92 | 98 | 988.8 |
| 20260507023103 | 41 | 133 | 3.0 | 8.0 | 0.21 | 0.90 | 0.90 | 97 | 988.4 |
| 20260507021554 | 41 | 133 | 2.0 | 7.0 | 0.18 | 0.87 | 0.87 | 97 | 988.4 |
| 20260507020056 | 42 | 150 | 4.0 | 9.0 | 0.10 | 0.79 | 0.79 | 97 | 988.5 |
| 20260507014602 | 43 | 145 | 0.0 | 4.0 | 0.03 | 0.71 | 0.71 | 97 | 988.1 |
| 20260507013053 | 43 | 145 | 0.0 | 4.0 | 0.01 | 0.69 | 0.69 | 97 | 988.2 |
| 20260507011552 | 44 | 143 | 3.0 | 4.0 | 0.02 | 0.69 | 0.69 | 97 | 988.2 |
| 20260507010049 | 45 | 172 | 0.0 | 5.0 | 0.03 | 0.69 | 0.69 | 97 | 988.1 |
| 20260507004552 | 46 | 91 | 4.0 | 7.0 | 0.04 | 0.68 | 0.68 | 96 | 988.6 |
| 20260507003055 | 46 | 3 | 4.0 | 6.0 | 0.09 | 0.68 | 0.68 | 97 | 988.3 |
| 20260507001551 | 46 | 39 | 2.0 | 4.0 | 0.15 | 0.67 | 0.67 | 97 | 988.4 |
| 20260507000054 | 46 | 155 | 2.0 | 6.0 | 0.15 | 0.66 | 0.66 | 97 | 988.4 |